KATW/ATW METAR and TAF weather

Enter ICAO airport designator
Station Type Date Time Source
KATW METAR 2020/09/26 10:45 UTC NOAA

KATW 261045Z 21005KT 10SM SCT120 17/13 A2974


Station Type Date Time Source
KATW Decoded METAR 2020/09/26 10:45 UTC NOAA

Appleton / Outagamie, WI, United States (KATW) 44-15N 088-31W
Sep 26, 2020 - 06:45 AM EDT / 2020.09.26 1045 UTC
Wind: from the SSW (210 degrees) at 6 MPH (5 KT):0
Visibility: 10 mile(s):0
Sky conditions: partly cloudy
Temperature: 62 F (17 C)
Dew Point: 55 F (13 C)
Relative Humidity: 77%
Pressure (altimeter): 29.74 in. Hg (1007 hPa)
ob: KATW 261045Z 21005KT 10SM SCT120 17/13 A2974
cycle: 11

Station Type Date Time Source
KATW TAF 2020/09/26 06:22 UTC NOAA

TAF KATW 260520Z 2606/2706 20010KT P6SM SCT150 WS020/24040KT
FM261000 23007KT P6SM BKN070
FM261200 21007KT P6SM BKN100
FM261700 18010G17KT P6SM BKN040
FM270000 18010G21KT P6SM VCSH BKN050

Example: see airport list